createdAt,value
2022-08-27T00:00:47.271Z,8.00
2022-08-27T00:03:15.483Z,8.63
2022-08-27T00:05:42.752Z,7.88
2022-08-27T00:08:14.827Z,8.40
2022-08-27T00:10:42.074Z,8.93
2022-08-27T00:13:09.220Z,7.97
2022-08-27T00:15:36.934Z,8.30
2022-08-27T00:18:05.579Z,8.85
2022-08-27T00:20:32.412Z,8.95
2022-08-27T00:22:59.279Z,8.45
2022-08-27T00:25:26.963Z,8.50
2022-08-27T00:27:53.845Z,9.45
2022-08-27T00:30:23.169Z,8.85
2022-08-27T00:32:50.278Z,9.45
2022-08-27T00:35:18.647Z,9.75
2022-08-27T00:37:46.007Z,9.65
2022-08-27T00:40:18.558Z,9.33
2022-08-27T00:42:46.064Z,10.15
2022-08-27T00:45:16.330Z,9.02
2022-08-27T00:47:47.019Z,10.50
2022-08-27T00:50:20.048Z,11.25
2022-08-27T00:52:51.126Z,11.35
2022-08-27T00:55:22.292Z,9.80
2022-08-27T00:58:01.060Z,9.27
2022-08-27T01:00:31.860Z,10.07
2022-08-27T01:02:58.622Z,8.77
2022-08-27T01:05:27.383Z,8.95
2022-08-27T01:08:09.893Z,10.00
2022-08-27T01:10:38.487Z,10.00
2022-08-27T01:13:08.527Z,9.68
2022-08-27T01:15:35.882Z,9.23
2022-08-27T01:18:05.718Z,9.43
2022-08-27T01:20:43.303Z,8.70
2022-08-27T01:23:22.429Z,9.88
2022-08-27T01:25:50.143Z,10.25
2022-08-27T01:28:17.756Z,9.27
2022-08-27T01:30:51.162Z,9.50
2022-08-27T01:33:21.933Z,9.50
2022-08-27T01:35:51.043Z,9.68
2022-08-27T01:38:30.937Z,9.93
2022-08-27T01:40:59.098Z,9.75
2022-08-27T01:43:27.526Z,10.32
2022-08-27T01:45:54.305Z,9.90
2022-08-27T01:48:22.664Z,11.48
2022-08-27T01:50:50.218Z,10.30
2022-08-27T01:53:20.728Z,10.75
2022-08-27T01:55:49.973Z,10.70
2022-08-27T01:58:18.354Z,11.00
2022-08-27T02:00:48.904Z,10.80
2022-08-27T02:03:21.622Z,11.13
2022-08-27T02:05:48.645Z,12.43
2022-08-27T02:08:17.900Z,10.98
2022-08-27T02:10:46.619Z,11.65
2022-08-27T02:13:14.216Z,10.75
2022-08-27T02:15:42.306Z,11.88
2022-08-27T02:18:10.889Z,11.13
2022-08-27T02:20:37.859Z,11.05
2022-08-27T02:23:05.190Z,13.18
2022-08-27T02:25:32.289Z,12.87
2022-08-27T02:28:00.331Z,13.70
2022-08-27T02:32:54.620Z,15.48
2022-08-27T02:35:23.552Z,13.63
2022-08-27T02:37:51.380Z,13.80
2022-08-27T02:40:20.985Z,12.85
2022-08-27T02:42:48.167Z,13.93
2022-08-27T02:45:15.794Z,13.93
2022-08-27T02:47:43.010Z,12.98
2022-08-27T02:50:10.983Z,13.65
2022-08-27T02:52:38.200Z,14.45
2022-08-27T02:55:06.318Z,14.70
2022-08-27T02:57:36.657Z,14.43
2022-08-27T03:00:07.755Z,15.23
2022-08-27T03:02:34.761Z,15.13
2022-08-27T03:05:01.619Z,15.80
2022-08-27T03:07:28.400Z,16.08
2022-08-27T03:09:55.211Z,15.57
2022-08-27T03:12:22.233Z,16.08
2022-08-27T03:14:49.993Z,16.45
2022-08-27T03:17:35.054Z,16.67
2022-08-27T03:20:02.303Z,17.08
2022-08-27T03:22:29.234Z,16.33
2022-08-27T03:24:56.408Z,18.60
2022-08-27T03:27:23.208Z,17.83
2022-08-27T03:29:49.996Z,17.77
2022-08-27T03:32:16.759Z,18.40
2022-08-27T03:34:43.568Z,17.55
2022-08-27T03:37:10.424Z,18.17
2022-08-27T03:39:37.333Z,17.13
2022-08-27T03:42:04.371Z,17.75
2022-08-27T03:44:31.635Z,17.98
2022-08-27T03:46:58.410Z,17.63
2022-08-27T03:49:25.187Z,19.23
2022-08-27T03:51:53.989Z,16.42
2022-08-27T03:54:21.240Z,17.70
2022-08-27T03:56:48.278Z,17.30
2022-08-27T03:59:15.924Z,17.63
2022-08-27T04:01:44.492Z,15.85
2022-08-27T04:04:13.076Z,17.35
2022-08-27T04:06:40.943Z,15.80
2022-08-27T04:09:07.778Z,16.50
2022-08-27T04:11:35.151Z,17.00
2022-08-27T04:14:20.704Z,16.17
2022-08-27T04:16:52.514Z,16.38
2022-08-27T04:19:21.982Z,16.67
2022-08-27T04:21:51.095Z,15.55
2022-08-27T04:24:18.082Z,15.98
2022-08-27T04:26:47.520Z,17.33
2022-08-27T04:29:14.391Z,15.35
2022-08-27T04:31:41.213Z,16.15
2022-08-27T04:34:08.080Z,15.68
2022-08-27T04:36:35.000Z,17.50
2022-08-27T04:39:01.924Z,16.08
2022-08-27T04:41:33.175Z,16.08
2022-08-27T04:44:07.726Z,16.75
2022-08-27T04:46:37.730Z,17.58
2022-08-27T04:49:10.772Z,15.90
2022-08-27T04:51:39.886Z,17.33
2022-08-27T04:54:07.800Z,15.63
2022-08-27T04:56:35.888Z,16.67
2022-08-27T04:59:05.680Z,17.35
2022-08-27T05:01:32.752Z,15.35
2022-08-27T05:03:59.667Z,16.50
2022-08-27T05:06:27.143Z,16.40
2022-08-27T05:08:54.922Z,15.43
2022-08-27T05:11:24.021Z,17.42
2022-08-27T05:13:50.883Z,17.08
2022-08-27T05:16:20.942Z,15.70
2022-08-27T05:18:50.183Z,15.27
2022-08-27T05:21:23.624Z,14.20
2022-08-27T05:23:52.227Z,15.00
2022-08-27T05:26:19.479Z,14.88
2022-08-27T05:28:46.447Z,14.23
2022-08-27T05:31:14.896Z,12.80
2022-08-27T05:33:43.793Z,13.60
2022-08-27T05:36:26.826Z,13.23
2022-08-27T05:38:55.116Z,12.60
2022-08-27T05:44:36.803Z,13.18
2022-08-27T05:46:56.099Z,12.98
2022-08-27T05:49:22.983Z,13.48
2022-08-27T05:51:50.115Z,14.60
2022-08-27T05:54:19.911Z,15.10
2022-08-27T05:56:49.597Z,13.70
2022-08-27T05:59:35.158Z,13.77
2022-08-27T06:02:02.754Z,13.32
2022-08-27T06:04:30.207Z,12.50
2022-08-27T06:06:57.103Z,14.15
2022-08-27T06:09:26.532Z,13.98
2022-08-27T06:11:54.547Z,13.18
2022-08-27T06:14:21.639Z,12.93
2022-08-27T06:16:48.698Z,12.63
2022-08-27T06:19:16.193Z,11.93
2022-08-27T06:21:43.328Z,12.63
2022-08-27T06:24:14.707Z,11.90
2022-08-27T06:26:44.720Z,11.05
2022-08-27T06:29:12.864Z,11.23
2022-08-27T06:31:40.449Z,10.52
2022-08-27T06:34:08.918Z,10.65
2022-08-27T06:39:05.035Z,10.02
2022-08-27T06:43:59.529Z,10.40
2022-08-27T06:46:29.665Z,9.55
2022-08-27T06:48:58.905Z,10.30
2022-08-27T06:51:29.175Z,9.93
2022-08-27T06:53:58.185Z,8.85
2022-08-27T06:56:25.043Z,8.27
2022-08-27T06:59:00.658Z,7.97
2022-08-27T07:01:33.611Z,8.65
2022-08-27T07:04:02.456Z,7.47
2022-08-27T07:06:31.671Z,7.18
2022-08-27T07:08:59.609Z,7.68
2022-08-27T07:11:28.548Z,7.43
2022-08-27T07:13:56.381Z,9.50
2022-08-27T07:16:25.534Z,8.88
2022-08-27T07:18:55.997Z,8.25
2022-08-27T07:21:23.949Z,8.05
2022-08-27T07:23:52.563Z,7.75
2022-08-27T07:26:20.230Z,7.63
2022-08-27T07:28:47.866Z,7.85
2022-08-27T07:31:22.870Z,8.52
2022-08-27T07:33:52.704Z,8.85
2022-08-27T07:36:21.900Z,8.65
2022-08-27T07:38:59.157Z,9.27
2022-08-27T07:41:30.775Z,8.95
2022-08-27T07:44:18.322Z,8.43
2022-08-27T07:46:47.958Z,9.00
2022-08-27T07:49:15.994Z,9.13
2022-08-27T07:51:42.868Z,8.85
2022-08-27T07:54:09.620Z,9.02
2022-08-27T07:56:36.517Z,8.45
2022-08-27T07:59:03.308Z,9.55
2022-08-27T08:01:30.392Z,9.25
2022-08-27T08:03:57.251Z,8.70
2022-08-27T08:06:24.213Z,8.52
2022-08-27T08:08:54.651Z,8.63
2022-08-27T08:11:21.571Z,8.43
2022-08-27T08:13:53.984Z,8.90
2022-08-27T08:16:28.355Z,8.32
2022-08-27T08:19:00.206Z,8.95
2022-08-27T08:21:27.055Z,8.85
2022-08-27T08:23:54.050Z,9.35
2022-08-27T08:26:20.919Z,9.13
2022-08-27T08:28:47.782Z,10.30
2022-08-27T08:31:14.847Z,9.88
2022-08-27T08:33:41.788Z,9.48
2022-08-27T08:36:15.471Z,9.88
2022-08-27T08:38:44.318Z,9.75
2022-08-27T08:41:51.836Z,9.23
2022-08-27T08:44:41.124Z,10.52
2022-08-27T08:47:12.104Z,10.65
2022-08-27T08:49:42.267Z,8.80
2022-08-27T08:52:34.416Z,8.52
2022-08-27T08:55:26.227Z,8.65
2022-08-27T08:58:01.198Z,9.05
2022-08-27T09:00:28.330Z,8.50
2022-08-27T09:02:55.629Z,8.55
2022-08-27T09:05:27.125Z,9.17
2022-08-27T09:08:35.275Z,8.75
2022-08-27T09:11:39.811Z,7.95
2022-08-27T09:14:29.314Z,6.90
2022-08-27T09:17:01.303Z,7.57
2022-08-27T09:19:29.180Z,9.73
2022-08-27T09:22:13.836Z,8.80
2022-08-27T09:24:49.694Z,8.30
2022-08-27T09:27:16.604Z,9.27
2022-08-27T09:29:53.232Z,8.50
2022-08-27T09:32:33.203Z,8.27
2022-08-27T09:35:03.429Z,9.38
2022-08-27T09:37:34.607Z,8.35
2022-08-27T09:40:29.732Z,7.97
2022-08-27T09:43:05.180Z,8.80
2022-08-27T09:45:32.161Z,8.38
2022-08-27T09:48:13.576Z,8.38
2022-08-27T09:50:48.192Z,7.75
2022-08-27T09:53:27.146Z,9.45
2022-08-27T09:55:59.751Z,8.45
2022-08-27T09:58:32.200Z,7.28
2022-08-27T10:01:16.954Z,8.45
2022-08-27T10:03:43.877Z,8.15
2022-08-27T10:06:11.740Z,8.40
2022-08-27T10:08:50.556Z,9.15
2022-08-27T10:11:39.081Z,7.90
2022-08-27T10:14:13.024Z,8.75
2022-08-27T10:16:52.860Z,9.02
2022-08-27T10:19:31.618Z,9.38
2022-08-27T10:22:03.951Z,7.82
2022-08-27T10:25:08.719Z,8.50
2022-08-27T10:27:49.929Z,9.68
2022-08-27T10:30:25.931Z,9.07
2022-08-27T10:32:56.553Z,9.07
2022-08-27T10:35:28.853Z,8.82
2022-08-27T10:38:07.966Z,7.97
2022-08-27T10:41:12.453Z,8.27
2022-08-27T10:43:58.367Z,7.85
2022-08-27T10:46:38.795Z,8.45
2022-08-27T10:49:31.775Z,7.50
2022-08-27T10:52:09.984Z,7.05
2022-08-27T10:54:47.495Z,6.90
2022-08-27T10:57:56.475Z,6.50
2022-08-27T11:00:41.870Z,6.82
2022-08-27T11:03:24.484Z,7.05
2022-08-27T11:05:51.919Z,7.13
2022-08-27T11:08:49.965Z,6.90
2022-08-27T11:12:13.348Z,6.22
2022-08-27T11:14:40.804Z,6.20
2022-08-27T11:17:36.341Z,6.28
2022-08-27T11:20:08.095Z,5.50
2022-08-27T11:22:44.927Z,6.88
2022-08-27T11:25:22.845Z,6.30
2022-08-27T11:27:52.167Z,6.18
2022-08-27T11:30:43.538Z,6.30
2022-08-27T11:33:15.272Z,5.68
2022-08-27T11:36:00.549Z,6.40
2022-08-27T11:38:33.583Z,5.90
2022-08-27T11:41:03.210Z,6.28
2022-08-27T11:43:34.690Z,6.20
2022-08-27T11:46:07.912Z,6.72
2022-08-27T11:48:39.794Z,6.32
2022-08-27T11:51:15.811Z,5.68
2022-08-27T11:54:22.426Z,5.88
2022-08-27T11:56:49.310Z,6.13
2022-08-27T11:59:28.377Z,6.20
2022-08-27T12:02:12.383Z,5.28
2022-08-27T12:04:42.040Z,6.30
2022-08-27T12:07:15.086Z,5.13
2022-08-27T12:09:56.876Z,5.75
2022-08-27T12:12:52.773Z,5.97
2022-08-27T12:15:40.416Z,6.18
2022-08-27T12:18:41.402Z,7.10
2022-08-27T12:21:26.064Z,7.40
2022-08-27T12:24:25.384Z,8.02
2022-08-27T12:27:01.759Z,8.00
2022-08-27T12:29:34.312Z,8.27
2022-08-27T12:32:31.542Z,8.95
2022-08-27T12:35:31.713Z,8.38
2022-08-27T12:38:18.798Z,7.22
2022-08-27T12:41:03.000Z,7.97
2022-08-27T12:43:35.252Z,7.30
2022-08-27T12:46:06.991Z,6.85
2022-08-27T12:48:55.268Z,7.10
2022-08-27T12:51:33.654Z,7.63
2022-08-27T12:54:19.316Z,6.45
2022-08-27T12:57:17.550Z,7.00
2022-08-27T13:00:08.412Z,7.30
2022-08-27T13:03:26.164Z,6.97
2022-08-27T13:05:57.412Z,7.45
2022-08-27T13:08:36.921Z,6.97
2022-08-27T13:11:21.912Z,7.22
2022-08-27T13:13:50.053Z,6.55
2022-08-27T13:18:51.943Z,7.30
2022-08-27T13:21:30.139Z,6.32
2022-08-27T13:24:02.666Z,6.25
2022-08-27T13:26:34.159Z,6.68
2022-08-27T13:29:03.775Z,6.55
2022-08-27T13:31:32.247Z,6.65
2022-08-27T13:34:01.003Z,7.80
2022-08-27T13:36:33.888Z,7.53
2022-08-27T13:39:03.572Z,6.55
2022-08-27T13:41:34.180Z,6.68
2022-08-27T13:44:15.481Z,6.95
2022-08-27T13:46:52.009Z,6.65
2022-08-27T13:49:22.888Z,6.50
2022-08-27T13:51:59.004Z,6.70
2022-08-27T13:54:25.941Z,6.97
2022-08-27T13:57:03.848Z,6.05
2022-08-27T13:59:32.052Z,6.40
2022-08-27T14:04:39.839Z,5.17
2022-08-27T14:07:15.482Z,5.65
2022-08-27T14:09:54.047Z,6.05
2022-08-27T14:12:34.539Z,5.93
2022-08-27T14:15:19.710Z,6.38
2022-08-27T14:17:47.795Z,5.63
2022-08-27T14:20:16.414Z,5.13
2022-08-27T14:22:44.481Z,6.53
2022-08-27T14:25:12.196Z,6.97
2022-08-27T14:27:40.879Z,8.15
2022-08-27T14:30:21.777Z,8.85
2022-08-27T14:33:00.729Z,7.53
2022-08-27T14:35:32.600Z,6.45
2022-08-27T14:38:04.658Z,8.60
2022-08-27T14:40:31.614Z,7.65
2022-08-27T14:43:00.100Z,8.52
2022-08-27T14:45:26.950Z,7.60
2022-08-27T14:48:02.109Z,8.30
2022-08-27T14:50:29.488Z,8.63
2022-08-27T14:52:59.461Z,8.63
2022-08-27T14:55:26.280Z,9.05
2022-08-27T14:57:53.195Z,8.23
2022-08-27T15:00:20.067Z,9.13
2022-08-27T15:02:48.329Z,8.88
2022-08-27T15:05:16.870Z,9.27
2022-08-27T15:07:46.205Z,9.60
2022-08-27T15:10:15.087Z,10.07
2022-08-27T15:12:42.233Z,8.50
2022-08-27T15:15:11.150Z,9.50
2022-08-27T15:17:38.315Z,9.10
2022-08-27T15:20:09.339Z,9.55
2022-08-27T15:22:44.050Z,9.35
2022-08-27T15:25:12.655Z,8.23
2022-08-27T15:27:39.920Z,9.25
2022-08-27T15:30:09.890Z,8.35
2022-08-27T15:32:43.001Z,9.15
2022-08-27T15:35:13.971Z,7.90
2022-08-27T15:37:42.646Z,9.48
2022-08-27T15:40:11.383Z,9.50
2022-08-27T15:42:38.362Z,8.48
2022-08-27T15:45:06.983Z,9.10
2022-08-27T15:47:34.135Z,7.72
2022-08-27T15:50:00.959Z,8.10
2022-08-27T15:52:40.331Z,8.27
2022-08-27T15:55:21.811Z,9.02
2022-08-27T15:57:48.721Z,8.95
2022-08-27T16:00:16.907Z,8.05
2022-08-27T16:07:39.164Z,6.32
2022-08-27T16:10:07.251Z,6.97
2022-08-27T16:12:34.473Z,6.90
2022-08-27T16:15:01.766Z,6.72
2022-08-27T16:17:28.713Z,6.17
2022-08-27T16:19:55.818Z,6.30
2022-08-27T16:22:22.727Z,5.88
2022-08-27T16:24:49.625Z,5.00
2022-08-27T16:27:16.535Z,5.60
2022-08-27T16:29:43.290Z,4.78
2022-08-27T16:32:17.362Z,4.80
2022-08-27T16:34:47.539Z,5.03
2022-08-27T16:37:22.581Z,5.20
2022-08-27T16:39:49.380Z,4.75
2022-08-27T16:42:16.203Z,5.85
2022-08-27T16:44:43.184Z,5.15
2022-08-27T16:47:10.008Z,4.93
2022-08-27T16:49:55.456Z,4.30
2022-08-27T16:52:23.359Z,3.85
2022-08-27T16:54:51.498Z,3.97
2022-08-27T16:57:18.713Z,4.90
2022-08-27T16:59:45.880Z,4.13
2022-08-27T17:02:22.232Z,4.38
2022-08-27T17:05:07.360Z,3.80
2022-08-27T17:07:40.669Z,4.40
2022-08-27T17:10:13.246Z,3.88
2022-08-27T17:12:40.981Z,4.00
2022-08-27T17:15:09.720Z,3.55
2022-08-27T17:17:37.155Z,4.10
2022-08-27T17:20:04.839Z,4.07
2022-08-27T17:22:31.616Z,4.40
2022-08-27T17:24:58.404Z,4.35
2022-08-27T17:27:25.188Z,5.40
2022-08-27T17:29:52.087Z,4.15
2022-08-27T17:32:19.096Z,4.38
2022-08-27T17:34:46.169Z,3.92
2022-08-27T17:37:13.007Z,4.13
2022-08-27T17:39:39.930Z,4.60
2022-08-27T17:42:07.815Z,4.90
2022-08-27T17:44:37.784Z,4.47
2022-08-27T17:47:07.743Z,4.70
2022-08-27T17:49:35.405Z,4.20
2022-08-27T17:52:05.466Z,4.00
2022-08-27T17:54:38.972Z,4.10
2022-08-27T17:57:18.221Z,4.80
2022-08-27T17:59:45.460Z,4.85
2022-08-27T18:02:25.290Z,4.15
2022-08-27T18:04:52.265Z,4.47
2022-08-27T18:07:19.569Z,4.53
2022-08-27T18:09:47.515Z,4.45
2022-08-27T18:12:18.070Z,4.38
2022-08-27T18:14:48.584Z,3.53
2022-08-27T18:17:15.398Z,3.83
2022-08-27T18:19:45.714Z,3.78
2022-08-27T18:22:12.796Z,4.82
2022-08-27T18:24:39.608Z,3.60
2022-08-27T18:27:06.537Z,3.90
2022-08-27T18:29:33.478Z,3.85
2022-08-27T18:32:00.396Z,3.88
2022-08-27T18:34:29.079Z,3.90
2022-08-27T18:36:55.920Z,3.25
2022-08-27T18:39:25.756Z,3.83
2022-08-27T18:41:53.247Z,3.40
2022-08-27T18:44:20.155Z,3.20
2022-08-27T18:46:47.040Z,3.22
2022-08-27T18:49:14.054Z,3.60
2022-08-27T18:51:43.560Z,3.42
2022-08-27T18:54:10.835Z,3.78
2022-08-27T18:56:37.647Z,3.77
2022-08-27T18:59:06.892Z,3.58
2022-08-27T19:01:33.996Z,3.58
2022-08-27T19:04:01.325Z,3.55
2022-08-27T19:06:28.104Z,3.25
2022-08-27T19:08:54.941Z,3.00
2022-08-27T19:11:21.782Z,3.05
2022-08-27T19:13:50.630Z,3.08
2022-08-27T19:16:24.134Z,3.05
2022-08-27T19:18:51.605Z,3.72
2022-08-27T19:21:18.449Z,3.30
2022-08-27T19:23:45.376Z,3.40
2022-08-27T19:26:20.053Z,3.30
2022-08-27T19:28:47.421Z,3.58
2022-08-27T19:31:15.180Z,3.77
2022-08-27T19:33:42.610Z,3.72
2022-08-27T19:36:15.578Z,3.17
2022-08-27T19:38:44.314Z,3.40
2022-08-27T19:41:12.049Z,3.38
2022-08-27T19:43:39.124Z,4.28
2022-08-27T19:46:12.725Z,3.50
2022-08-27T19:48:39.619Z,3.88
2022-08-27T19:51:06.576Z,3.80
2022-08-27T19:53:34.240Z,3.53
2022-08-27T19:56:01.330Z,3.47
2022-08-27T19:58:28.139Z,3.70
2022-08-27T20:00:55.071Z,4.18
2022-08-27T20:03:21.987Z,3.65
2022-08-27T20:05:51.367Z,4.22
2022-08-27T20:08:19.385Z,4.10
2022-08-27T20:10:46.519Z,5.38
2022-08-27T20:13:13.695Z,5.00
2022-08-27T20:15:41.323Z,4.13
2022-08-27T20:18:10.262Z,4.15
2022-08-27T20:20:37.357Z,4.05
2022-08-27T20:23:05.160Z,4.82
2022-08-27T20:26:09.224Z,4.65
2022-08-27T20:28:39.197Z,3.72
2022-08-27T20:31:20.666Z,4.13
2022-08-27T20:33:47.759Z,4.18
2022-08-27T20:36:26.472Z,4.03
2022-08-27T20:38:53.880Z,4.03
2022-08-27T20:41:21.768Z,3.87
2022-08-27T20:43:48.829Z,3.90
2022-08-27T20:46:20.382Z,4.30
2022-08-27T20:48:47.238Z,4.00
2022-08-27T20:51:14.147Z,4.55
2022-08-27T20:53:40.940Z,4.25
2022-08-27T20:56:07.803Z,5.07
2022-08-27T20:58:53.373Z,4.68
2022-08-27T21:01:20.610Z,4.78
2022-08-27T21:03:48.775Z,4.90
2022-08-27T21:06:23.872Z,4.75
2022-08-27T21:08:53.274Z,4.50
2022-08-27T21:11:20.291Z,4.20
2022-08-27T21:13:56.178Z,4.80
2022-08-27T21:16:24.681Z,5.38
2022-08-27T21:18:53.650Z,4.57
2022-08-27T21:21:20.522Z,5.32
2022-08-27T21:23:47.432Z,4.93
2022-08-27T21:26:14.622Z,5.40
2022-08-27T21:28:43.195Z,4.78
2022-08-27T21:31:10.496Z,5.47
2022-08-27T21:33:39.679Z,5.33
2022-08-27T21:36:11.305Z,5.63
2022-08-27T21:38:39.257Z,4.70
2022-08-27T21:41:06.561Z,5.75
2022-08-27T21:43:33.374Z,5.37
2022-08-27T21:46:00.194Z,5.63
2022-08-27T21:48:27.092Z,6.25
2022-08-27T21:50:54.455Z,5.30
2022-08-27T21:53:22.513Z,5.57
2022-08-27T21:55:52.432Z,5.35
2022-08-27T21:58:22.312Z,5.32
2022-08-27T22:00:53.324Z,6.30
2022-08-27T22:03:22.666Z,6.55
2022-08-27T22:05:50.103Z,6.15
2022-08-27T22:08:19.735Z,6.73
2022-08-27T22:10:49.896Z,6.18
2022-08-27T22:13:16.707Z,7.40
2022-08-27T22:15:43.623Z,6.65
2022-08-27T22:18:11.293Z,6.80
2022-08-27T22:20:38.831Z,7.40
2022-08-27T22:23:07.897Z,6.97
2022-08-27T22:25:35.389Z,7.13
2022-08-27T22:28:02.320Z,7.75
2022-08-27T22:30:29.148Z,7.75
2022-08-27T22:32:55.991Z,8.35
2022-08-27T22:35:23.229Z,7.72
2022-08-27T22:37:53.573Z,7.65
2022-08-27T22:40:23.833Z,7.30
2022-08-27T22:42:51.552Z,7.47
2022-08-27T22:45:19.282Z,7.20
2022-08-27T22:47:46.275Z,7.30
2022-08-27T22:50:13.385Z,7.05
2022-08-27T22:52:43.755Z,7.85
2022-08-27T22:55:14.343Z,7.22
2022-08-27T22:57:41.479Z,7.30
2022-08-27T23:00:13.156Z,7.60
2022-08-27T23:02:40.036Z,7.18
2022-08-27T23:05:07.494Z,8.23
2022-08-27T23:07:34.856Z,7.95
2022-08-27T23:10:01.648Z,7.97
2022-08-27T23:12:28.537Z,6.72
2022-08-27T23:14:55.289Z,8.23
2022-08-27T23:17:23.884Z,6.57
2022-08-27T23:19:52.232Z,6.70
2022-08-27T23:22:19.288Z,6.30
2022-08-27T23:25:04.684Z,6.43
2022-08-27T23:27:31.507Z,6.32
2022-08-27T23:30:00.524Z,6.93
2022-08-27T23:32:28.617Z,7.22
2022-08-27T23:34:55.874Z,7.20
2022-08-27T23:37:23.931Z,6.88
2022-08-27T23:39:50.806Z,6.68
2022-08-27T23:42:18.664Z,7.32
2022-08-27T23:44:49.215Z,7.18
2022-08-27T23:47:16.425Z,7.15
2022-08-27T23:49:46.129Z,7.88
2022-08-27T23:52:13.397Z,6.57
2022-08-27T23:54:40.442Z,6.75
2022-08-27T23:57:07.243Z,6.78
2022-08-27T23:59:34.113Z,6.13
